Time;durP1;ratioP1;P1;durP2;ratioP2;P2;SDS_P1;SDS_P2;PMS_P1;PMS_P2;Temp;Humidity;BMP_temperature;BMP_pressure;BME280_temperature;BME280_humidity;BME280_pressure;Samples;Min_cycle;Max_cycle;Signal;HPM_P1;HPM_P2
2022/03/02 00:00:09;;;;;;;50.35;37.60;;;;;;;7.59;59.90;102799.94;5171262;28;20855;-51
2022/03/02 00:02:43;;;;;;;56.17;39.80;;;;;;;7.63;59.91;102811.97;5173430;28;20407;-51
2022/03/02 00:05:16;;;;;;;54.60;37.88;;;;;;;7.59;60.01;102806.03;5173732;28;20415;-54
2022/03/02 00:07:48;;;;;;;53.80;37.90;;;;;;;7.58;59.88;102808.72;5172545;28;20425;-54
2022/03/02 00:10:21;;;;;;;55.33;37.78;;;;;;;7.62;60.02;102811.13;5173014;28;20438;-52
2022/03/02 00:12:55;;;;;;;50.58;38.78;;;;;;;7.56;60.19;102805.34;5172513;28;20430;-53
2022/03/02 00:15:27;;;;;;;53.55;39.50;;;;;;;7.58;60.00;102808.72;5172558;28;20750;-51
2022/03/02 00:18:01;;;;;;;57.90;40.58;;;;;;;7.56;59.83;102810.63;5178617;28;20818;-54
2022/03/02 00:20:34;;;;;;;49.63;38.22;;;;;;;7.49;60.15;102804.81;5178765;28;20437;-51
2022/03/02 00:23:07;;;;;;;51.10;39.50;;;;;;;7.57;60.31;102814.94;5176207;28;20413;-52
2022/03/02 00:25:39;;;;;;;49.28;38.20;;;;;;;7.53;60.12;102818.66;5177906;28;20512;-53
2022/03/02 00:28:15;;;;;;;53.53;39.20;;;;;;;7.56;60.18;102813.25;5175589;28;20734;-48
2022/03/02 00:30:47;;;;;;;54.38;38.97;;;;;;;7.60;60.12;102806.88;5172379;28;20411;-49
2022/03/02 00:33:20;;;;;;;51.47;40.23;;;;;;;7.66;59.81;102801.28;5177358;28;20871;-51
2022/03/02 00:35:53;;;;;;;54.13;40.35;;;;;;;7.69;60.13;102813.44;5171418;28;20409;-51
2022/03/02 00:38:25;;;;;;;53.65;39.17;;;;;;;7.68;59.86;102798.56;5173310;28;20467;-49
2022/03/02 00:40:58;;;;;;;52.97;40.05;;;;;;;7.69;60.13;102797.66;5176959;28;20559;-55
2022/03/02 00:43:32;;;;;;;53.70;39.10;;;;;;;7.70;60.02;102792.28;5173144;28;20510;-54
2022/03/02 00:46:04;;;;;;;50.58;38.42;;;;;;;7.67;60.02;102792.47;5172707;28;20456;-52
2022/03/02 00:48:38;;;;;;;53.85;40.50;;;;;;;7.66;60.00;102789.94;5176238;28;20411;-49
2022/03/02 00:51:11;;;;;;;53.03;38.43;;;;;;;7.63;59.99;102783.03;5175966;28;20433;-47
2022/03/02 00:53:44;;;;;;;55.90;39.42;;;;;;;7.60;59.92;102785.84;5174747;28;20968;-50
2022/03/02 00:56:16;;;;;;;58.63;40.17;;;;;;;7.63;60.13;102788.31;5180231;28;20515;-48
2022/03/02 00:58:50;;;;;;;53.95;39.83;;;;;;;7.65;60.05;102783.81;5168543;28;20534;-52
2022/03/02 01:01:22;;;;;;;49.83;39.08;;;;;;;7.63;59.96;102790.94;5174675;28;20786;-50
2022/03/02 01:03:55;;;;;;;56.05;39.30;;;;;;;7.63;60.14;102789.16;5178124;28;20423;-51
2022/03/02 01:06:27;;;;;;;55.55;40.35;;;;;;;7.37;60.03;102743.25;5170554;28;20495;-53
2022/03/02 01:09:00;;;;;;;54.03;41.08;;;;;;;7.60;60.23;102785.84;5172696;28;20420;-49
2022/03/02 01:11:32;;;;;;;58.47;39.95;;;;;;;7.59;60.12;102781.53;5169733;28;20487;-57
2022/03/02 01:14:06;;;;;;;58.70;40.88;;;;;;;7.54;60.40;102780.91;5174793;28;20500;-48
2022/03/02 01:16:39;;;;;;;53.83;40.55;;;;;;;7.55;60.17;102780.81;5171954;28;21244;-53
2022/03/02 01:19:11;;;;;;;53.90;39.22;;;;;;;7.54;60.38;102788.81;5178839;28;20411;-51
2022/03/02 01:21:44;;;;;;;58.88;41.42;;;;;;;7.49;60.41;102770.63;5175513;28;20450;-50
2022/03/02 01:24:16;;;;;;;55.70;42.53;;;;;;;7.48;60.45;102768.09;5168767;28;20504;-52
2022/03/02 01:26:49;;;;;;;55.00;41.00;;;;;;;7.57;60.36;102783.38;5173191;28;20495;-49
2022/03/02 01:29:23;;;;;;;55.53;41.28;;;;;;;7.55;60.48;102777.34;5170665;28;20431;-49
2022/03/02 01:31:56;;;;;;;58.17;40.95;;;;;;;7.56;60.35;102777.28;5171527;28;20422;-57
2022/03/02 01:34:29;;;;;;;54.60;40.17;;;;;;;7.54;60.49;102791.44;5172090;28;20500;-55
2022/03/02 01:37:01;;;;;;;59.22;42.70;;;;;;;7.54;60.42;102776.50;5171729;28;20423;-50
2022/03/02 01:39:33;;;;;;;53.08;39.60;;;;;;;7.56;60.29;102773.81;5171813;28;20539;-53
2022/03/02 01:42:06;;;;;;;55.30;42.72;;;;;;;7.53;60.42;102774.81;5179209;28;20505;-53
2022/03/02 01:44:40;;;;;;;56.17;42.88;;;;;;;7.52;60.62;102772.25;5170825;28;20895;-53
2022/03/02 01:47:13;;;;;;;61.53;42.35;;;;;;;7.48;60.64;102771.56;5172119;28;20431;-50
2022/03/02 01:49:45;;;;;;;57.47;43.87;;;;;;;7.46;60.77;102765.53;5175739;28;20490;-52
2022/03/02 01:52:18;;;;;;;57.95;43.17;;;;;;;7.48;60.55;102760.22;5175735;28;20562;-52
2022/03/02 01:54:50;;;;;;;63.70;43.88;;;;;;;7.50;60.38;102753.09;5172336;28;20519;-51
2022/03/02 01:57:23;;;;;;;56.42;42.47;;;;;;;7.59;60.53;102757.84;5173489;28;20521;-56
2022/03/02 01:59:57;;;;;;;58.92;41.45;;;;;;;7.55;60.58;102761.56;5174544;28;20509;-52
2022/03/02 02:02:29;;;;;;;57.03;43.53;;;;;;;7.49;60.72;102741.69;5170066;28;20433;-52
2022/03/02 02:05:02;;;;;;;59.85;43.97;;;;;;;7.58;60.74;102748.25;5176066;28;20451;-53
2022/03/02 02:07:34;;;;;;;57.30;43.22;;;;;;;7.57;60.63;102738.69;5169560;28;24493;-50
2022/03/02 02:10:08;;;;;;;61.45;43.03;;;;;;;7.54;60.84;102744.09;5175560;28;20498;-52
2022/03/02 02:12:41;;;;;;;55.40;41.00;;;;;;;7.48;60.89;102733.91;5171847;28;20501;-52
2022/03/02 02:15:15;;;;;;;58.55;42.90;;;;;;;7.47;60.82;102735.69;5173588;28;21422;-47
2022/03/02 02:17:48;;;;;;;57.73;42.93;;;;;;;7.51;60.90;102734.59;5170221;28;20508;-48
2022/03/02 02:20:20;;;;;;;58.97;43.97;;;;;;;7.46;61.01;102726.09;5175341;28;20418;-52
2022/03/02 02:22:55;;;;;;;57.45;44.30;;;;;;;7.41;61.15;102728.16;5172567;28;20424;-47
2022/03/02 02:25:27;;;;;;;59.75;43.08;;;;;;;7.48;60.89;102739.19;5180053;28;20443;-50
2022/03/02 02:28:01;;;;;;;58.45;44.75;;;;;;;7.36;61.01;102715.22;5170220;28;20470;-50
2022/03/02 02:30:34;;;;;;;61.33;44.72;;;;;;;7.49;60.99;102723.31;5168272;28;20531;-49
2022/03/02 02:33:07;;;;;;;60.63;44.58;;;;;;;7.49;61.03;102717.19;5177915;28;20487;-48
2022/03/02 02:35:39;;;;;;;61.20;44.30;;;;;;;7.52;61.13;102725.75;5168482;28;20850;-48
2022/03/02 02:38:13;;;;;;;59.28;43.55;;;;;;;7.49;61.00;102725.09;5168950;28;20420;-47
2022/03/02 02:40:46;;;;;;;59.72;42.75;;;;;;;7.48;60.98;102723.41;5169078;28;20822;-49
2022/03/02 02:43:22;;;;;;;55.92;42.83;;;;;;;7.25;61.11;102680.81;5169190;28;20510;-55
2022/03/02 02:45:55;;;;;;;61.67;44.33;;;;;;;7.42;61.24;102707.97;5171758;28;20427;-48
2022/03/02 02:48:27;;;;;;;60.30;44.50;;;;;;;7.45;61.12;102710.41;5175917;28;20423;-51
2022/03/02 02:51:00;;;;;;;59.67;44.58;;;;;;;7.47;61.02;102711.19;5171967;28;20495;-48
2022/03/02 02:53:34;;;;;;;63.80;46.03;;;;;;;7.41;61.34;102685.25;5175577;28;20842;-57
2022/03/02 02:56:07;;;;;;;61.90;45.67;;;;;;;7.49;61.21;102701.44;5173632;28;20800;-48
2022/03/02 02:58:39;;;;;;;59.35;45.10;;;;;;;7.52;61.09;102698.63;5172864;28;20503;-50
2022/03/02 03:01:11;;;;;;;60.25;46.50;;;;;;;7.47;61.03;102683.13;5171459;28;20504;-47
2022/03/02 03:03:44;;;;;;;56.33;42.30;;;;;;;7.53;61.20;102695.09;5172742;28;20491;-46
2022/03/02 03:06:16;;;;;;;63.15;45.75;;;;;;;7.51;61.07;102702.19;5165008;28;20762;-51
2022/03/02 03:08:50;;;;;;;58.28;43.35;;;;;;;7.49;61.18;102683.03;5174892;28;20417;-53
2022/03/02 03:11:23;;;;;;;62.00;46.80;;;;;;;7.38;61.05;102676.59;5169180;28;20405;-50
2022/03/02 03:13:55;;;;;;;60.47;44.25;;;;;;;7.41;61.21;102686.09;5169183;28;20959;-49
2022/03/02 03:16:28;;;;;;;60.88;41.97;;;;;;;7.42;61.39;102684.31;5174323;28;20438;-51
2022/03/02 03:19:00;;;;;;;60.65;44.92;;;;;;;7.39;61.24;102680.91;5176126;28;20974;-49
2022/03/02 03:21:33;;;;;;;60.88;42.75;;;;;;;7.35;61.35;102676.75;5172726;28;21083;-52
2022/03/02 03:24:07;;;;;;;56.10;43.20;;;;;;;7.42;61.37;102677.25;5175553;28;20502;-53
2022/03/02 03:26:40;;;;;;;57.97;43.13;;;;;;;7.42;61.37;102676.41;5173999;28;20488;-51
2022/03/02 03:29:12;;;;;;;59.63;44.28;;;;;;;7.43;61.39;102678.09;5169454;28;20419;-52
2022/03/02 03:31:45;;;;;;;60.03;44.73;;;;;;;7.46;61.37;102672.69;5174555;28;23867;-46
2022/03/02 03:34:17;;;;;;;58.90;43.78;;;;;;;7.39;61.45;102651.13;5176454;28;20985;-54
2022/03/02 03:36:52;;;;;;;58.83;44.90;;;;;;;7.51;61.16;102660.13;5175526;28;20425;-53
2022/03/02 03:39:26;;;;;;;62.88;45.05;;;;;;;7.52;61.26;102667.06;5175516;28;20481;-55
2022/03/02 03:41:58;;;;;;;60.05;43.15;;;;;;;7.52;61.14;102665.28;5176212;28;20565;-53
2022/03/02 03:44:31;;;;;;;56.78;42.45;;;;;;;7.50;61.28;102667.19;5173445;28;20930;-48
2022/03/02 03:47:04;;;;;;;60.45;43.53;;;;;;;7.45;61.39;102661.31;5179944;28;20427;-50
2022/03/02 03:49:37;;;;;;;55.70;41.93;;;;;;;7.41;61.42;102665.06;5174272;28;20399;-48
2022/03/02 03:52:10;;;;;;;64.72;45.17;;;;;;;7.31;61.53;102650.72;5177199;28;20407;-50
2022/03/02 03:54:43;;;;;;;59.67;44.43;;;;;;;7.28;61.54;102649.13;5182395;28;20907;-55
2022/03/02 03:57:16;;;;;;;55.40;41.97;;;;;;;7.33;61.52;102652.31;5174509;28;20406;-51
2022/03/02 03:59:49;;;;;;;57.05;43.40;;;;;;;7.07;61.79;102622.22;5177272;28;20426;-52
2022/03/02 04:02:22;;;;;;;57.58;43.08;;;;;;;7.19;61.79;102654.88;5181202;28;20510;-53
2022/03/02 04:04:54;;;;;;;59.78;43.33;;;;;;;7.10;61.70;102639.59;5159891;28;20416;-49
2022/03/02 04:07:26;;;;;;;57.78;43.60;;;;;;;7.18;61.92;102655.78;5166551;28;20463;-47
2022/03/02 04:10:00;;;;;;;59.20;43.63;;;;;;;7.15;61.72;102642.81;5176106;28;20546;-50
2022/03/02 04:12:33;;;;;;;61.30;43.63;;;;;;;7.24;61.67;102652.81;5175866;28;20506;-51
2022/03/02 04:15:07;;;;;;;59.05;42.28;;;;;;;7.22;61.50;102643.34;5176126;28;20419;-53
2022/03/02 04:17:40;;;;;;;59.88;43.92;;;;;;;7.05;61.61;102608.31;5182432;28;20918;-52
2022/03/02 04:20:13;;;;;;;57.00;43.30;;;;;;;7.29;61.50;102645.53;5169883;28;20425;-60
2022/03/02 04:22:46;;;;;;;57.92;43.13;;;;;;;7.31;61.44;102648.94;5162413;28;20501;-51
2022/03/02 04:25:19;;;;;;;62.03;44.03;;;;;;;7.34;61.43;102646.16;5174675;28;20432;-49
2022/03/02 04:27:52;;;;;;;62.95;43.22;;;;;;;7.32;61.27;102634.88;5171147;28;20424;-52
2022/03/02 04:30:26;;;;;;;63.42;44.85;;;;;;;7.29;61.34;102632.41;5171939;28;20436;-51
2022/03/02 04:33:00;;;;;;;58.47;43.70;;;;;;;7.33;61.46;102633.91;5176043;28;20903;-46
2022/03/02 04:35:33;;;;;;;57.08;43.20;;;;;;;7.30;61.44;102635.88;5173353;28;20828;-47
2022/03/02 04:38:07;;;;;;;64.78;45.22;;;;;;;7.29;61.63;102627.16;5171933;28;20520;-50
2022/03/02 04:40:41;;;;;;;63.42;46.20;;;;;;;7.20;61.47;102622.41;5173721;28;20472;-52
2022/03/02 04:43:13;;;;;;;61.67;44.50;;;;;;;7.27;61.56;102625.53;5171184;28;20405;-49
2022/03/02 04:45:45;;;;;;;63.10;45.38;;;;;;;7.19;61.50;102623.34;5169175;28;20452;-49
2022/03/02 04:48:18;;;;;;;65.20;45.83;;;;;;;7.19;61.50;102631.22;5175818;28;20413;-52
2022/03/02 04:50:51;;;;;;;62.15;45.40;;;;;;;7.27;61.69;102628.16;5171621;28;20515;-49
2022/03/02 04:53:24;;;;;;;60.75;45.25;;;;;;;7.20;61.32;102619.78;5173852;28;20527;-50
2022/03/02 04:55:58;;;;;;;62.08;44.65;;;;;;;7.21;61.52;102621.44;5176864;28;20412;-49
2022/03/02 04:58:30;;;;;;;59.05;43.38;;;;;;;7.17;61.66;102619.94;5169429;28;20439;-49
2022/03/02 05:01:03;;;;;;;59.78;43.88;;;;;;;7.10;61.63;102608.06;5169710;28;20415;-50
2022/03/02 05:03:35;;;;;;;59.00;45.03;;;;;;;7.13;61.55;102610.53;5176982;28;20779;-50
2022/03/02 05:06:08;;;;;;;64.22;45.72;;;;;;;7.16;61.88;102613.00;5170836;28;20421;-53
2022/03/02 05:08:45;;;;;;;63.00;44.87;;;;;;;7.17;61.79;102614.69;5173413;28;20942;-49
2022/03/02 05:11:19;;;;;;;61.90;45.25;;;;;;;7.15;61.85;102606.91;5166842;28;20480;-48
2022/03/02 05:13:52;;;;;;;60.70;43.65;;;;;;;7.13;61.86;102615.78;5172504;28;20479;-47
2022/03/02 05:16:24;;;;;;;63.30;44.35;;;;;;;7.11;61.69;102605.34;5179862;28;20433;-49
2022/03/02 05:18:57;;;;;;;64.85;44.58;;;;;;;7.11;61.73;102609.75;5178884;28;20732;-48
2022/03/02 05:21:29;;;;;;;62.33;47.25;;;;;;;7.12;61.77;102608.81;5173133;28;20448;-48
2022/03/02 05:24:01;;;;;;;60.30;44.00;;;;;;;7.13;61.66;102603.50;5174523;28;20502;-51
2022/03/02 05:26:35;;;;;;;60.30;44.53;;;;;;;7.09;61.67;102596.72;5175087;28;20516;-47
2022/03/02 05:29:08;;;;;;;58.47;43.07;;;;;;;7.15;61.68;102601.66;5172802;28;20487;-50
2022/03/02 05:31:40;;;;;;;59.05;44.75;;;;;;;7.16;61.57;102607.75;5177113;28;20411;-50
2022/03/02 05:34:13;;;;;;;59.30;43.47;;;;;;;7.10;61.81;102593.16;5171621;28;20432;-50
2022/03/02 05:36:45;;;;;;;59.27;44.30;;;;;;;7.13;61.58;102600.03;5173311;28;20486;-47
2022/03/02 05:39:18;;;;;;;69.10;46.22;;;;;;;7.12;61.77;102601.81;5186947;28;20498;-52
2022/03/02 05:42:10;;;;;;;58.25;43.72;;;;;;;7.10;61.74;102598.41;5177322;28;20504;-51
2022/03/02 05:44:44;;;;;;;64.25;43.20;;;;;;;7.09;61.52;102601.09;5177954;28;20471;-53
2022/03/02 05:47:17;;;;;;;59.38;43.13;;;;;;;7.05;61.64;102602.22;5180757;28;20429;-52
2022/03/02 05:49:50;;;;;;;56.92;43.38;;;;;;;7.03;61.60;102593.56;5171486;28;20424;-50
2022/03/02 05:52:24;;;;;;;59.25;44.42;;;;;;;7.01;61.55;102592.81;5168958;28;20416;-47
2022/03/02 05:54:56;;;;;;;54.38;41.28;;;;;;;7.02;61.65;102594.50;5181777;28;20790;-52
2022/03/02 05:57:30;;;;;;;62.63;45.83;;;;;;;6.95;61.79;102598.41;5177942;28;20482;-49
2022/03/02 06:00:03;;;;;;;60.22;45.08;;;;;;;6.40;61.58;102508.53;5178213;28;20614;-49
2022/03/02 06:02:36;;;;;;;58.55;42.55;;;;;;;6.99;61.83;102613.06;5182748;28;20482;-49
2022/03/02 06:05:10;;;;;;;62.03;42.60;;;;;;;6.96;61.64;102611.44;5167864;28;20412;-52
2022/03/02 06:07:42;;;;;;;57.33;41.63;;;;;;;6.96;61.81;102605.34;5177349;28;20434;-48
2022/03/02 06:10:18;;;;;;;66.13;43.17;;;;;;;6.86;61.84;102595.31;5175878;28;20466;-48
2022/03/02 06:12:53;;;;;;;58.15;44.33;;;;;;;6.83;61.80;102611.25;5170767;28;20452;-47
2022/03/02 06:15:26;;;;;;;60.65;42.47;;;;;;;6.87;61.88;102611.94;5170882;28;20503;-51
2022/03/02 06:18:01;;;;;;;61.20;43.53;;;;;;;6.86;61.80;102618.13;5176413;28;20499;-52
2022/03/02 06:20:34;;;;;;;61.88;44.65;;;;;;;6.88;61.73;102618.91;5171053;28;20421;-51
2022/03/02 06:23:09;;;;;;;61.75;43.42;;;;;;;6.84;61.58;102618.19;5173191;28;20498;-54
2022/03/02 06:25:42;;;;;;;60.42;41.90;;;;;;;6.83;62.02;102615.66;5178802;28;20421;-51
2022/03/02 06:28:16;;;;;;;61.15;43.80;;;;;;;6.83;61.65;102613.88;5173151;28;20430;-55
2022/03/02 06:30:49;;;;;;;56.22;42.40;;;;;;;6.81;61.73;102623.59;5165619;28;20734;-47
2022/03/02 06:33:22;;;;;;;61.77;43.30;;;;;;;6.80;61.67;102619.28;5170492;28;21114;-48
2022/03/02 06:35:54;;;;;;;63.00;46.72;;;;;;;6.82;61.75;102630.56;5171199;28;20453;-51
2022/03/02 06:38:28;;;;;;;57.33;42.63;;;;;;;6.83;61.71;102627.00;5173619;28;20417;-50
2022/03/02 06:41:04;;;;;;;61.55;44.05;;;;;;;6.83;61.75;102631.41;5173459;28;20429;-50
2022/03/02 06:44:00;;;;;;;63.05;45.58;;;;;;;6.79;61.56;102617.59;5166842;28;20407;-48
2022/03/02 06:46:41;;;;;;;61.85;45.15;;;;;;;6.89;61.49;102625.84;5169964;28;20881;-50
2022/03/02 06:49:25;;;;;;;62.55;44.13;;;;;;;6.91;61.52;102624.81;5171806;28;20958;-51
2022/03/02 06:52:01;;;;;;;64.68;45.53;;;;;;;6.91;61.48;102631.88;5167658;28;20434;-48
2022/03/02 06:54:34;;;;;;;62.72;43.25;;;;;;;6.87;61.71;102620.66;5167861;28;20524;-51
2022/03/02 06:57:13;;;;;;;61.28;46.63;;;;;;;6.63;61.37;102579.97;5170551;28;20924;-50
2022/03/02 06:59:54;;;;;;;61.88;46.40;;;;;;;6.82;61.29;102620.06;5172066;28;20419;-46
2022/03/02 07:02:39;;;;;;;61.08;43.67;;;;;;;6.59;61.60;102583.66;5169492;28;20417;-51
2022/03/02 07:05:12;;;;;;;62.38;45.10;;;;;;;6.85;61.38;102626.94;5173871;28;20508;-55
2022/03/02 07:07:45;;;;;;;62.45;45.47;;;;;;;6.78;61.63;102622.91;5167870;28;20422;-53
2022/03/02 07:10:17;;;;;;;59.72;43.30;;;;;;;6.80;61.60;102624.53;5163768;28;20463;-59
2022/03/02 07:12:50;;;;;;;60.47;43.72;;;;;;;6.79;61.66;102625.47;5167575;28;20444;-58
2022/03/02 07:15:25;;;;;;;60.50;44.23;;;;;;;6.74;61.62;102617.00;5176120;28;20484;-52
2022/03/02 07:18:00;;;;;;;61.40;44.65;;;;;;;6.80;61.68;102637.66;5170072;28;20942;-51
2022/03/02 07:20:33;;;;;;;64.85;45.15;;;;;;;6.82;61.53;102630.56;5167114;28;20923;-52
2022/03/02 07:23:12;;;;;;;66.82;46.42;;;;;;;6.81;61.60;102631.47;5169513;28;20420;-52
2022/03/02 07:25:46;;;;;;;61.50;43.80;;;;;;;6.79;61.66;102627.25;5166651;28;20428;-53
2022/03/02 07:28:18;;;;;;;60.22;45.42;;;;;;;6.72;61.61;102612.75;5160760;28;20404;-52
2022/03/02 07:30:57;;;;;;;67.25;44.90;;;;;;;6.79;61.54;102633.34;5164812;28;20429;-51
2022/03/02 07:33:33;;;;;;;62.03;46.17;;;;;;;6.98;61.53;102632.38;5168757;28;21411;-52
2022/03/02 07:36:06;;;;;;;58.58;43.83;;;;;;;7.88;60.86;102639.66;5171841;28;20385;-48
2022/03/02 07:38:39;;;;;;;52.33;39.80;;;;;;;8.86;59.77;102639.13;5174083;28;20472;-51
2022/03/02 07:41:12;;;;;;;49.85;36.65;;;;;;;9.85;58.74;102637.22;5171745;28;20520;-54
2022/03/02 07:43:46;;;;;;;50.60;34.63;;;;;;;10.78;58.04;102643.28;5174042;28;20423;-52
2022/03/02 07:46:20;;;;;;;45.28;32.92;;;;;;;11.44;57.47;102628.81;5168078;28;20548;-51
2022/03/02 07:48:52;;;;;;;43.53;31.38;;;;;;;11.77;57.15;102635.25;5165862;28;20482;-53
2022/03/02 07:51:26;;;;;;;43.25;30.42;;;;;;;12.03;57.15;102643.09;5166793;28;20417;-51
2022/03/02 07:54:03;;;;;;;45.40;31.37;;;;;;;12.39;56.61;102640.31;5175288;28;20507;-51
2022/03/02 07:56:36;;;;;;;42.35;30.33;;;;;;;12.55;56.25;102644.44;5167561;28;20413;-53
2022/03/02 07:59:09;;;;;;;41.78;30.08;;;;;;;12.81;56.04;102643.22;5171727;28;20439;-49
2022/03/02 08:01:44;;;;;;;39.15;29.13;;;;;;;12.98;55.52;102631.31;5170632;28;20495;-52
2022/03/02 08:04:16;;;;;;;40.15;29.40;;;;;;;13.20;55.20;102635.75;5166136;28;20417;-52
2022/03/02 08:06:49;;;;;;;43.15;29.75;;;;;;;13.24;54.73;102639.81;5176948;28;20423;-51
2022/03/02 08:09:24;;;;;;;41.88;29.23;;;;;;;13.35;54.59;102637.19;5168526;28;20826;-54
2022/03/02 08:11:58;;;;;;;42.83;30.17;;;;;;;13.87;53.93;102649.81;5170657;28;20946;-53
2022/03/02 08:14:32;;;;;;;38.72;28.10;;;;;;;14.24;53.17;102647.56;5169104;28;20451;-63
2022/03/02 08:17:07;;;;;;;40.33;29.20;;;;;;;14.60;52.47;102633.00;5168513;28;21003;-52
2022/03/02 08:19:39;;;;;;;41.15;26.98;;;;;;;14.56;52.28;102644.88;5168765;28;20509;-57
2022/03/02 08:22:18;;;;;;;37.00;26.75;;;;;;;14.92;51.71;102642.66;5166416;28;20590;-51
2022/03/02 08:24:59;;;;;;;40.60;29.10;;;;;;;15.50;50.74;102626.84;5168255;28;20948;-50
2022/03/02 08:27:32;;;;;;;38.40;26.45;;;;;;;15.91;50.00;102630.25;5164695;28;20488;-49
2022/03/02 08:30:07;;;;;;;36.42;27.10;;;;;;;15.71;49.93;102644.56;5169017;28;20411;-49
2022/03/02 08:32:44;;;;;;;37.58;27.10;;;;;;;15.57;50.17;102641.28;5168958;28;20494;-53
2022/03/02 08:35:17;;;;;;;35.42;26.92;;;;;;;15.65;49.58;102646.75;5166929;28;20775;-55
2022/03/02 08:37:49;;;;;;;38.13;28.00;;;;;;;15.67;49.39;102644.84;5170123;28;20532;-51
2022/03/02 08:40:22;;;;;;;35.80;25.83;;;;;;;15.82;48.81;102641.72;5170950;28;20494;-47
2022/03/02 08:42:56;;;;;;;36.72;27.00;;;;;;;15.57;48.82;102643.09;5168273;28;20498;-48
2022/03/02 08:45:29;;;;;;;36.67;26.42;;;;;;;15.45;48.78;102634.38;5173225;28;20415;-55
2022/03/02 08:48:05;;;;;;;37.60;26.50;;;;;;;15.56;48.26;102636.09;5166405;28;21070;-51
2022/03/02 08:50:37;;;;;;;39.15;27.63;;;;;;;15.53;47.94;102631.88;5166583;28;20416;-55
2022/03/02 08:53:13;;;;;;;41.97;28.50;;;;;;;15.70;47.68;102637.53;5178153;28;20594;-52
2022/03/02 08:55:46;;;;;;;39.70;27.15;;;;;;;15.63;47.48;102616.75;5168877;28;20884;-49
2022/03/02 08:58:20;;;;;;;37.47;27.48;;;;;;;15.80;46.98;102623.25;5167500;28;20487;-52
2022/03/02 09:00:54;;;;;;;37.55;27.60;;;;;;;15.71;46.53;102588.63;5174014;28;20429;-50
2022/03/02 09:03:31;;;;;;;36.60;26.35;;;;;;;15.90;46.44;102617.91;5171365;28;20426;-50
2022/03/02 09:06:06;;;;;;;37.55;27.73;;;;;;;16.28;45.79;102617.00;5165117;28;20463;-51
2022/03/02 09:08:40;;;;;;;37.65;25.70;;;;;;;16.53;45.33;102610.19;5171808;28;20534;-52
2022/03/02 09:11:13;;;;;;;34.90;25.30;;;;;;;16.75;44.94;102624.16;5169789;28;20886;-55
2022/03/02 09:13:45;;;;;;;36.97;24.80;;;;;;;16.69;44.90;102611.41;5171436;28;20452;-54
2022/03/02 09:16:18;;;;;;;37.60;26.20;;;;;;;16.81;44.60;102611.09;5167383;28;20450;-54
2022/03/02 09:18:53;;;;;;;37.30;25.42;;;;;;;17.16;44.06;102600.69;5167979;28;20420;-51
2022/03/02 09:21:27;;;;;;;40.47;27.55;;;;;;;17.14;43.98;102607.97;5163929;28;20580;-52
2022/03/02 09:24:00;;;;;;;34.60;24.65;;;;;;;17.27;43.91;102605.78;5170636;28;20979;-54
2022/03/02 09:26:33;;;;;;;32.25;24.00;;;;;;;17.40;43.40;102614.25;5168029;28;20417;-52
2022/03/02 09:29:08;;;;;;;32.28;25.58;;;;;;;16.86;44.01;102605.31;5175189;28;20465;-51
2022/03/02 09:31:44;;;;;;;33.83;24.48;;;;;;;16.30;44.92;102603.53;5174966;28;20924;-51
2022/03/02 09:34:26;;;;;;;36.58;24.85;;;;;;;15.75;45.33;102592.66;5164612;28;20510;-52
2022/03/02 09:37:00;;;;;;;38.85;25.42;;;;;;;15.64;45.73;102598.97;5170346;28;20409;-50
2022/03/02 09:39:35;;;;;;;36.80;24.75;;;;;;;15.22;46.48;102589.38;5171644;28;20510;-56
2022/03/02 09:42:14;;;;;;;34.47;24.50;;;;;;;14.99;46.64;102602.09;5167864;28;20425;-51
2022/03/02 09:44:49;;;;;;;36.03;25.20;;;;;;;14.65;47.18;102593.56;5167479;28;21208;-52
2022/03/02 09:47:24;;;;;;;35.63;23.87;;;;;;;14.22;47.66;102596.41;5171242;28;20436;-52
2022/03/02 09:49:59;;;;;;;37.50;25.93;;;;;;;13.87;48.07;102597.53;5166170;28;20424;-51
2022/03/02 09:52:34;;;;;;;32.63;24.33;;;;;;;13.31;48.56;102598.59;5168508;28;20467;-50
2022/03/02 09:55:12;;;;;;;38.92;27.17;;;;;;;12.86;48.76;102600.44;5175330;28;20498;-51
2022/03/02 09:57:48;;;;;;;37.57;27.07;;;;;;;12.52;48.86;102584.56;5166180;28;20526;-50
2022/03/02 10:00:23;;;;;;;40.50;28.90;;;;;;;12.24;49.09;102596.44;5164957;28;20509;-53
2022/03/02 10:02:58;;;;;;;40.70;28.05;;;;;;;11.90;49.30;102601.66;5171614;28;22086;-51
2022/03/02 10:05:35;;;;;;;42.20;29.02;;;;;;;11.63;49.50;102601.03;5156122;28;20824;-51
2022/03/02 10:08:10;;;;;;;39.72;27.50;;;;;;;11.43;49.39;102602.50;5152654;28;20517;-57
2022/03/02 10:10:43;;;;;;;38.47;28.38;;;;;;;11.27;49.46;102597.44;5175815;28;20431;-51
2022/03/02 10:13:17;;;;;;;42.35;28.80;;;;;;;11.21;49.40;102606.69;5171368;28;20921;-51
2022/03/02 10:15:49;;;;;;;37.72;28.05;;;;;;;11.02;49.36;102566.66;5166827;28;20870;-50
2022/03/02 10:18:22;;;;;;;40.73;27.30;;;;;;;11.18;49.31;102592.81;5138232;28;21021;-50
2022/03/02 10:21:02;;;;;;;39.08;26.83;;;;;;;11.20;49.23;102596.22;5175050;28;20422;-52
2022/03/02 10:23:40;;;;;;;36.17;25.13;;;;;;;11.06;49.13;102584.84;5177962;28;20420;-52
2022/03/02 10:26:18;;;;;;;35.60;25.40;;;;;;;10.95;49.02;102582.09;5181108;28;20414;-52
2022/03/02 10:29:00;;;;;;;39.60;27.30;;;;;;;10.91;48.99;102590.38;5165867;28;20411;-50
2022/03/02 10:31:48;;;;;;;37.58;25.55;;;;;;;10.93;48.83;102591.97;5164164;28;20520;-54
2022/03/02 10:34:36;;;;;;;37.72;24.98;;;;;;;10.90;48.79;102588.66;5169836;28;20495;-54
2022/03/02 10:37:32;;;;;;;37.10;25.67;;;;;;;10.85;48.71;102586.38;5173774;28;20420;-61
2022/03/02 10:40:15;;;;;;;33.78;24.45;;;;;;;10.82;48.49;102583.94;5160277;28;20926;-49
2022/03/02 10:42:57;;;;;;;36.90;25.58;;;;;;;10.66;48.55;102563.03;5171717;28;20418;-54
2022/03/02 10:45:33;;;;;;;36.70;24.95;;;;;;;10.84;48.47;102574.97;5163225;28;20448;-52
2022/03/02 10:48:16;;;;;;;38.88;26.27;;;;;;;10.86;48.29;102577.47;5171984;28;20456;-51
2022/03/02 10:50:52;;;;;;;35.70;25.85;;;;;;;10.92;48.34;102569.13;5172820;28;20409;-51
2022/03/02 10:53:30;;;;;;;36.65;25.85;;;;;;;10.99;48.18;102575.63;5168462;28;20423;-57
2022/03/02 10:56:08;;;;;;;37.95;24.77;;;;;;;11.06;48.00;102574.25;5172446;28;20455;-54
2022/03/02 10:58:44;;;;;;;38.13;26.67;;;;;;;11.11;47.69;102567.78;5178700;28;20904;-54
2022/03/02 11:01:18;;;;;;;35.50;25.50;;;;;;;11.23;47.87;102559.81;5170989;28;20756;-54
2022/03/02 11:03:51;;;;;;;35.33;24.50;;;;;;;11.38;47.71;102565.78;5173259;28;20937;-55
2022/03/02 11:06:27;;;;;;;35.42;24.63;;;;;;;11.46;47.62;102560.78;5177380;28;20443;-50
2022/03/02 11:09:02;;;;;;;34.60;23.77;;;;;;;11.60;47.33;102562.38;5173647;28;20430;-53
2022/03/02 11:11:37;;;;;;;33.38;22.83;;;;;;;11.41;47.18;102528.53;5172210;28;20446;-53
2022/03/02 11:14:10;;;;;;;37.85;23.58;;;;;;;11.62;46.95;102549.06;5168787;28;20921;-49
2022/03/02 11:16:45;;;;;;;34.15;23.13;;;;;;;11.57;46.92;102551.19;5171814;28;20493;-50
2022/03/02 11:19:26;;;;;;;35.20;23.58;;;;;;;11.61;46.97;102550.84;5169708;28;20822;-53
2022/03/02 11:21:59;;;;;;;40.65;22.67;;;;;;;11.67;46.71;102563.59;5177474;28;20487;-52
2022/03/02 11:24:35;;;;;;;34.33;22.80;;;;;;;11.65;46.65;102564.72;5171146;28;20915;-51
2022/03/02 11:27:08;;;;;;;34.92;22.77;;;;;;;11.61;46.81;102553.47;5170819;28;20412;-51
2022/03/02 11:29:41;;;;;;;39.10;25.75;;;;;;;11.58;46.65;102558.16;5164565;28;21138;-55
2022/03/02 11:32:14;;;;;;;38.65;25.33;;;;;;;11.39;46.71;102537.53;5165620;28;20900;-55
2022/03/02 11:34:48;;;;;;;36.20;24.90;;;;;;;11.24;46.73;102535.06;5163983;28;20420;-48
2022/03/02 11:37:23;;;;;;;41.08;26.30;;;;;;;11.14;46.96;102549.06;5164868;28;20865;-53
2022/03/02 11:39:57;;;;;;;41.67;26.38;;;;;;;11.05;46.95;102540.81;5168004;28;20438;-53
2022/03/02 11:42:32;;;;;;;34.63;24.77;;;;;;;11.03;46.98;102537.47;5163908;28;20450;-52
2022/03/02 11:45:08;;;;;;;37.30;25.37;;;;;;;10.98;46.97;102533.47;5166264;28;20431;-53